Summit Lake, WI

11:41 PM CDT on August 21, 2014 (GMT -0500)
KWIGLEAS2 | Change Station
CLOSE
Current Station
Personal Weather Station
Location: GLEASON, WI
Elevation: 1605 ft
Nearby Weather Stations
Active Advisory: Special Statement

Elev 1605 ft 45.41 °N, 89.43 °W | Updated 12 seconds ago

Rain
Rain
65.1 °F
Feels Like 65.1 °F
N
0.0
Wind Variable Wind from SSE
Gusts 71.6 mph

Today
High -- | Low -- °F
--% Chance of Precip.
Yesterday
High -- | Low -- °F
Precip. -- in
6:04 AM 7:53 PM
Waning Crescent, 10% visible
Pressure 29.97 in
Visibility 7.0 miles
Clouds Overcast 400 ft
Dew Point 65 °F
Humidity 99%
Rainfall 0.05 in
Snow Depth Not available.
UV 0 out of 12
Pollen 6.80 out of 12
Air Quality Not available.
Flu Activity Not available.
METAR KAIG 220415Z AUTO 12005KT 7SM OVC004 17/17 A2997 RMK AO2 T01700167

More Conditions Fewer Conditions

Pressure 29.97 in
Visibility 7.0 miles
Clouds Overcast 400 ft
Dew Point 65 °F
Humidity 99%
Rainfall 0.05 in
Snow Depth Not available.
UV 0 out of 12
Pollen 6.80 out of 12
Air Quality Not available.
Flu Activity Not available.
METAR KAIG 220415Z AUTO 12005KT 7SM OVC004 17/17 A2997 RMK AO2 T01700167

More Conditions Fewer Conditions

10-Day Weather Forecast

Almanac

Astronomy

Aug. 21, 2014 Rise Set
Actual Time 6:04 AM CDT 7:53 PM CDT
Civil Twilight 5:33 AM CDT 8:25 PM CDT
Nautical Twilight 4:54 AM CDT 9:03 PM CDT
Astronomical Twilight 4:12 AM CDT 9:45 PM CDT
Moon 2:30 AM CDT (8/21) 5:26 PM CDT (8/21)
Length of Visible Light 14h 51m
Length of Day
13h 48m
Tomorrow will be 2m 56s shorter.
Waning Crescent, 10% of the Moon is Illuminated
Aug 22
Waning Crescent
Aug 25
New
Sep 2
First Quarter
Sep 8
Full
Sep 15
Last Quarter

Yesterday's Extremes

State Highs State Lows

Community

WunderPhotos

Upload Photos

1,746,130 photos uploaded!

Nearby

Snow Depth

Station Depth Elevation
No new snow has been reported.

Earthquake Activity

City Distance Mag. Time & Date
No recent earthquake activity has been reported nearby.
Minimum magnitude displayed is 2.5.

Coastal Water Temperatures

Place Temperature
No Stations Reporting

Nearby Weather Stations